Anchorage, Utah
Current Conditions -  °F | °C
As of 3:31 PM on Monday 22 Dec 2014 (Local Time) from KHIF Reporting Station
Broken Clouds Broken Clouds  
Wind Chill: 35°   Ceiling: 3800
Heat Index: 41°   Visibility: 10mi
Dew Point: 32°   Wind: 9mph
Humidity: 70%   Direction: 340°NNW
Pressure: 30"   Gusts: NA
Location:  41.123°N, 112.063°W
Report Text: KHIF 222231Z 34008KT 10SM FEW029 BKN038 BKN046 05/00 A3000 RMK AO2A RAE2231
Loading
Personal Weather Stations






























Interactive Weather Map New forecast layout! Learn more

10-Day Weather Forecast

Advertisements
Track Severe Weather on mobile